sensor_id;sensor_type;location;lat;lon;timestamp;pressure;altitude;pressure_sealevel;temperature;humidity
75585;BME280;64162;53.508;10.476;2023-09-07T00:00:31;101897.25;;;22.79;63.14
75585;BME280;64162;53.508;10.476;2023-09-07T00:02:58;101895.13;;;22.33;64.46
75585;BME280;64162;53.508;10.476;2023-09-07T00:05:26;101892.53;;;22.64;63.57
75585;BME280;64162;53.508;10.476;2023-09-07T00:07:53;101896.22;;;22.71;62.97
75585;BME280;64162;53.508;10.476;2023-09-07T00:10:19;101897.44;;;21.71;64.30
75585;BME280;64162;53.508;10.476;2023-09-07T00:12:46;101895.44;;;22.47;62.09
75585;BME280;64162;53.508;10.476;2023-09-07T00:15:13;101894.28;;;22.33;64.67
75585;BME280;64162;53.508;10.476;2023-09-07T00:17:39;101895.63;;;22.29;64.48
75585;BME280;64162;53.508;10.476;2023-09-07T00:20:06;101895.81;;;22.11;62.58
75585;BME280;64162;53.508;10.476;2023-09-07T00:22:37;101887.00;;;22.58;63.55
75585;BME280;64162;53.508;10.476;2023-09-07T00:25:04;101899.97;;;22.46;62.56
75585;BME280;64162;53.508;10.476;2023-09-07T00:27:33;101894.44;;;22.48;63.12
75585;BME280;64162;53.508;10.476;2023-09-07T00:30:02;101893.69;;;22.70;63.17
75585;BME280;64162;53.508;10.476;2023-09-07T00:32:32;101898.16;;;22.30;64.59
75585;BME280;64162;53.508;10.476;2023-09-07T00:35:00;101894.22;;;22.65;62.78
75585;BME280;64162;53.508;10.476;2023-09-07T00:37:26;101893.56;;;21.66;66.37
75585;BME280;64162;53.508;10.476;2023-09-07T00:39:53;101893.75;;;21.81;65.46
75585;BME280;64162;53.508;10.476;2023-09-07T00:42:19;101895.97;;;22.01;65.32
75585;BME280;64162;53.508;10.476;2023-09-07T00:44:46;101887.69;;;21.70;66.16
75585;BME280;64162;53.508;10.476;2023-09-07T00:47:15;101894.53;;;21.57;66.86
75585;BME280;64162;53.508;10.476;2023-09-07T00:49:42;101893.44;;;22.24;63.50
75585;BME280;64162;53.508;10.476;2023-09-07T00:52:09;101896.25;;;22.55;63.52
75585;BME280;64162;53.508;10.476;2023-09-07T00:54:37;101897.31;;;22.30;64.69
75585;BME280;64162;53.508;10.476;2023-09-07T00:57:05;101894.63;;;22.38;63.37
75585;BME280;64162;53.508;10.476;2023-09-07T00:59:32;101894.97;;;22.27;64.24
75585;BME280;64162;53.508;10.476;2023-09-07T01:01:59;101891.59;;;22.33;62.89
75585;BME280;64162;53.508;10.476;2023-09-07T01:04:26;101893.63;;;22.31;61.26
75585;BME280;64162;53.508;10.476;2023-09-07T01:07:02;101896.47;;;22.29;63.97
75585;BME280;64162;53.508;10.476;2023-09-07T01:09:32;101895.97;;;22.26;64.14
75585;BME280;64162;53.508;10.476;2023-09-07T01:12:00;101893.13;;;22.19;61.45
75585;BME280;64162;53.508;10.476;2023-09-07T01:14:27;101889.72;;;22.01;61.75
75585;BME280;64162;53.508;10.476;2023-09-07T01:16:53;101891.59;;;22.08;64.62
75585;BME280;64162;53.508;10.476;2023-09-07T01:19:20;101889.25;;;22.30;64.42
75585;BME280;64162;53.508;10.476;2023-09-07T01:21:47;101885.41;;;22.24;64.39
75585;BME280;64162;53.508;10.476;2023-09-07T01:24:15;101880.03;;;22.16;64.31
75585;BME280;64162;53.508;10.476;2023-09-07T01:26:43;101874.94;;;22.54;62.79
75585;BME280;64162;53.508;10.476;2023-09-07T01:29:09;101883.72;;;22.39;63.28
75585;BME280;64162;53.508;10.476;2023-09-07T01:31:37;101880.34;;;22.37;63.42
75585;BME280;64162;53.508;10.476;2023-09-07T01:34:05;101880.94;;;22.64;63.21
75585;BME280;64162;53.508;10.476;2023-09-07T01:36:32;101888.00;;;22.81;62.04
75585;BME280;64162;53.508;10.476;2023-09-07T01:39:00;101883.03;;;22.46;62.53
75585;BME280;64162;53.508;10.476;2023-09-07T01:41:27;101882.38;;;22.19;64.57
75585;BME280;64162;53.508;10.476;2023-09-07T01:43:55;101881.03;;;22.31;63.72
75585;BME280;64162;53.508;10.476;2023-09-07T01:46:22;101881.47;;;21.54;65.57
75585;BME280;64162;53.508;10.476;2023-09-07T01:48:49;101879.97;;;21.09;64.47
75585;BME280;64162;53.508;10.476;2023-09-07T01:51:15;101874.44;;;21.69;64.32
75585;BME280;64162;53.508;10.476;2023-09-07T01:53:42;101873.22;;;21.47;66.40
75585;BME280;64162;53.508;10.476;2023-09-07T01:56:09;101876.47;;;21.75;65.35
75585;BME280;64162;53.508;10.476;2023-09-07T01:58:36;101882.31;;;21.54;66.50
75585;BME280;64162;53.508;10.476;2023-09-07T02:01:03;101882.19;;;21.80;64.38
75585;BME280;64162;53.508;10.476;2023-09-07T02:03:30;101882.19;;;21.88;65.06
75585;BME280;64162;53.508;10.476;2023-09-07T02:05:56;101876.72;;;21.39;67.03
75585;BME280;64162;53.508;10.476;2023-09-07T02:08:23;101879.50;;;21.80;65.30
75585;BME280;64162;53.508;10.476;2023-09-07T02:10:50;101878.56;;;21.39;64.60
75585;BME280;64162;53.508;10.476;2023-09-07T02:13:16;101877.94;;;21.53;66.23
75585;BME280;64162;53.508;10.476;2023-09-07T02:15:43;101874.56;;;21.43;64.93
75585;BME280;64162;53.508;10.476;2023-09-07T02:18:09;101878.81;;;21.70;65.85
75585;BME280;64162;53.508;10.476;2023-09-07T02:20:36;101885.53;;;21.74;66.06
75585;BME280;64162;53.508;10.476;2023-09-07T02:23:03;101880.13;;;21.07;66.10
75585;BME280;64162;53.508;10.476;2023-09-07T02:25:29;101890.47;;;21.28;67.28
75585;BME280;64162;53.508;10.476;2023-09-07T02:27:57;101887.00;;;21.52;66.10
75585;BME280;64162;53.508;10.476;2023-09-07T02:30:23;101886.31;;;21.08;67.88
75585;BME280;64162;53.508;10.476;2023-09-07T02:32:50;101894.81;;;20.95;67.66
75585;BME280;64162;53.508;10.476;2023-09-07T02:35:17;101889.97;;;20.99;68.40
75585;BME280;64162;53.508;10.476;2023-09-07T02:37:44;101890.72;;;20.83;68.91
75585;BME280;64162;53.508;10.476;2023-09-07T02:40:11;101891.50;;;21.01;67.92
75585;BME280;64162;53.508;10.476;2023-09-07T02:42:38;101886.88;;;20.77;68.97
75585;BME280;64162;53.508;10.476;2023-09-07T02:45:05;101885.41;;;20.91;68.06
75585;BME280;64162;53.508;10.476;2023-09-07T02:47:31;101892.22;;;20.52;69.82
75585;BME280;64162;53.508;10.476;2023-09-07T02:49:58;101890.72;;;20.75;67.10
75585;BME280;64162;53.508;10.476;2023-09-07T02:52:25;101894.50;;;20.64;66.58
75585;BME280;64162;53.508;10.476;2023-09-07T02:54:52;101893.41;;;20.83;69.02
75585;BME280;64162;53.508;10.476;2023-09-07T02:57:19;101897.38;;;20.71;68.54
75585;BME280;64162;53.508;10.476;2023-09-07T02:59:46;101905.72;;;20.68;68.81
75585;BME280;64162;53.508;10.476;2023-09-07T03:02:13;101911.63;;;20.71;69.18
75585;BME280;64162;53.508;10.476;2023-09-07T03:04:40;101908.09;;;21.05;67.68
75585;BME280;64162;53.508;10.476;2023-09-07T03:07:06;101905.88;;;21.00;65.07
75585;BME280;64162;53.508;10.476;2023-09-07T03:09:33;101910.41;;;21.00;67.35
75585;BME280;64162;53.508;10.476;2023-09-07T03:12:00;101902.97;;;20.86;63.97
75585;BME280;64162;53.508;10.476;2023-09-07T03:14:27;101902.25;;;20.75;66.03
75585;BME280;64162;53.508;10.476;2023-09-07T03:16:54;101909.47;;;20.75;68.67
75585;BME280;64162;53.508;10.476;2023-09-07T03:19:21;101904.84;;;20.93;66.47
75585;BME280;64162;53.508;10.476;2023-09-07T03:21:48;101910.66;;;21.15;66.08
75585;BME280;64162;53.508;10.476;2023-09-07T03:24:15;101912.06;;;21.27;65.91
75585;BME280;64162;53.508;10.476;2023-09-07T03:26:42;101916.25;;;21.21;66.57
75585;BME280;64162;53.508;10.476;2023-09-07T03:29:10;101919.19;;;20.76;64.20
75585;BME280;64162;53.508;10.476;2023-09-07T03:31:36;101908.22;;;20.95;66.88
75585;BME280;64162;53.508;10.476;2023-09-07T03:34:03;101915.34;;;20.87;67.82
75585;BME280;64162;53.508;10.476;2023-09-07T03:36:30;101911.88;;;20.94;67.21
75585;BME280;64162;53.508;10.476;2023-09-07T03:38:56;101917.78;;;20.46;68.38
75585;BME280;64162;53.508;10.476;2023-09-07T03:41:23;101917.28;;;20.68;68.01
75585;BME280;64162;53.508;10.476;2023-09-07T03:43:51;101914.53;;;19.99;70.36
75585;BME280;64162;53.508;10.476;2023-09-07T03:46:17;101912.16;;;19.78;71.64
75585;BME280;64162;53.508;10.476;2023-09-07T03:48:45;101909.50;;;19.96;67.12
75585;BME280;64162;53.508;10.476;2023-09-07T03:51:11;101915.75;;;19.87;70.92
75585;BME280;64162;53.508;10.476;2023-09-07T03:53:38;101913.84;;;20.15;68.14
75585;BME280;64162;53.508;10.476;2023-09-07T03:56:05;101922.16;;;20.29;68.61
75585;BME280;64162;53.508;10.476;2023-09-07T03:58:31;101923.16;;;19.75;71.03
75585;BME280;64162;53.508;10.476;2023-09-07T04:00:59;101929.66;;;20.43;68.23
75585;BME280;64162;53.508;10.476;2023-09-07T04:03:27;101926.97;;;20.26;69.43
75585;BME280;64162;53.508;10.476;2023-09-07T04:05:53;101930.69;;;20.07;68.96
75585;BME280;64162;53.508;10.476;2023-09-07T04:08:20;101933.13;;;20.18;69.53
75585;BME280;64162;53.508;10.476;2023-09-07T04:10:47;101928.50;;;19.75;70.66
75585;BME280;64162;53.508;10.476;2023-09-07T04:13:13;101938.69;;;19.89;70.47
75585;BME280;64162;53.508;10.476;2023-09-07T04:15:44;101934.94;;;19.82;70.74
75585;BME280;64162;53.508;10.476;2023-09-07T04:18:13;101925.91;;;19.65;71.37
75585;BME280;64162;53.508;10.476;2023-09-07T04:20:42;101942.91;;;19.92;70.52
75585;BME280;64162;53.508;10.476;2023-09-07T04:23:10;101932.09;;;19.66;70.88
75585;BME280;64162;53.508;10.476;2023-09-07T04:25:37;101931.22;;;20.10;69.80
75585;BME280;64162;53.508;10.476;2023-09-07T04:28:06;101938.31;;;20.02;69.59
75585;BME280;64162;53.508;10.476;2023-09-07T04:30:37;101931.13;;;20.20;68.94
75585;BME280;64162;53.508;10.476;2023-09-07T04:33:05;101935.16;;;20.24;67.96
75585;BME280;64162;53.508;10.476;2023-09-07T04:35:32;101937.41;;;19.93;70.15
75585;BME280;64162;53.508;10.476;2023-09-07T04:37:59;101936.56;;;19.48;71.72
75585;BME280;64162;53.508;10.476;2023-09-07T04:40:26;101941.03;;;19.57;69.91
75585;BME280;64162;53.508;10.476;2023-09-07T04:42:53;101939.09;;;20.12;69.41
75585;BME280;64162;53.508;10.476;2023-09-07T04:45:19;101939.84;;;20.40;68.31
75585;BME280;64162;53.508;10.476;2023-09-07T04:47:46;101945.41;;;20.47;65.92
75585;BME280;64162;53.508;10.476;2023-09-07T04:50:13;101948.56;;;20.06;69.60
75585;BME280;64162;53.508;10.476;2023-09-07T04:52:40;101957.91;;;20.20;69.41
75585;BME280;64162;53.508;10.476;2023-09-07T04:55:07;101948.53;;;20.24;68.59
75585;BME280;64162;53.508;10.476;2023-09-07T04:57:35;101946.09;;;20.49;67.83
75585;BME280;64162;53.508;10.476;2023-09-07T05:00:02;101950.31;;;20.51;67.52
75585;BME280;64162;53.508;10.476;2023-09-07T05:02:30;101952.50;;;20.56;66.79
75585;BME280;64162;53.508;10.476;2023-09-07T05:04:57;101960.44;;;20.91;66.75
75585;BME280;64162;53.508;10.476;2023-09-07T05:07:23;101959.69;;;21.07;63.98
75585;BME280;64162;53.508;10.476;2023-09-07T05:09:50;101958.47;;;19.24;71.89
75585;BME280;64162;53.508;10.476;2023-09-07T05:12:17;101960.00;;;19.26;73.32
75585;BME280;64162;53.508;10.476;2023-09-07T05:14:45;101957.66;;;19.51;71.90
75585;BME280;64162;53.508;10.476;2023-09-07T05:17:11;101950.16;;;19.64;70.29
75585;BME280;64162;53.508;10.476;2023-09-07T05:19:38;101964.50;;;19.63;70.85
75585;BME280;64162;53.508;10.476;2023-09-07T05:22:06;101959.38;;;19.52;71.67
75585;BME280;64162;53.508;10.476;2023-09-07T05:24:32;101963.91;;;19.87;70.44
75585;BME280;64162;53.508;10.476;2023-09-07T05:26:59;101959.16;;;19.81;70.91
75585;BME280;64162;53.508;10.476;2023-09-07T05:29:26;101958.72;;;19.85;71.12
75585;BME280;64162;53.508;10.476;2023-09-07T05:31:53;101955.53;;;20.17;70.46
75585;BME280;64162;53.508;10.476;2023-09-07T05:34:19;101960.47;;;20.30;68.81
75585;BME280;64162;53.508;10.476;2023-09-07T05:36:47;101955.59;;;20.07;70.62
75585;BME280;64162;53.508;10.476;2023-09-07T05:39:14;101959.31;;;20.32;69.85
75585;BME280;64162;53.508;10.476;2023-09-07T05:41:41;101957.81;;;20.12;70.24
75585;BME280;64162;53.508;10.476;2023-09-07T05:44:07;101964.09;;;20.38;68.84
75585;BME280;64162;53.508;10.476;2023-09-07T05:46:34;101961.91;;;20.24;69.71
75585;BME280;64162;53.508;10.476;2023-09-07T05:49:01;101967.41;;;20.23;68.99
75585;BME280;64162;53.508;10.476;2023-09-07T05:51:27;101964.84;;;19.95;70.97
75585;BME280;64162;53.508;10.476;2023-09-07T05:53:54;101966.34;;;20.33;68.83
75585;BME280;64162;53.508;10.476;2023-09-07T05:56:22;101963.72;;;20.16;69.98
75585;BME280;64162;53.508;10.476;2023-09-07T05:58:49;101970.41;;;20.81;68.04
75585;BME280;64162;53.508;10.476;2023-09-07T06:01:15;101975.16;;;20.61;68.71
75585;BME280;64162;53.508;10.476;2023-09-07T06:03:42;101977.75;;;20.71;67.60
75585;BME280;64162;53.508;10.476;2023-09-07T06:06:09;101975.16;;;20.87;67.80
75585;BME280;64162;53.508;10.476;2023-09-07T06:08:36;101980.97;;;21.08;67.78
75585;BME280;64162;53.508;10.476;2023-09-07T06:11:02;101979.03;;;20.67;68.34
75585;BME280;64162;53.508;10.476;2023-09-07T06:13:29;101982.88;;;20.90;67.60
75585;BME280;64162;53.508;10.476;2023-09-07T06:15:56;101985.47;;;20.74;68.11
75585;BME280;64162;53.508;10.476;2023-09-07T06:18:22;101979.25;;;20.99;67.90
75585;BME280;64162;53.508;10.476;2023-09-07T06:20:49;101988.53;;;21.13;67.52
75585;BME280;64162;53.508;10.476;2023-09-07T06:23:16;101985.81;;;21.05;67.33
75585;BME280;64162;53.508;10.476;2023-09-07T06:25:43;101994.09;;;20.94;67.51
75585;BME280;64162;53.508;10.476;2023-09-07T06:28:10;101998.03;;;21.25;66.99
75585;BME280;64162;53.508;10.476;2023-09-07T06:30:36;101998.72;;;21.27;67.07
75585;BME280;64162;53.508;10.476;2023-09-07T06:33:04;101995.41;;;20.90;68.30
75585;BME280;64162;53.508;10.476;2023-09-07T06:35:30;101990.53;;;21.37;65.91
75585;BME280;64162;53.508;10.476;2023-09-07T06:37:57;101994.44;;;21.51;65.85
75585;BME280;64162;53.508;10.476;2023-09-07T06:40:25;101997.81;;;21.61;66.93
75585;BME280;64162;53.508;10.476;2023-09-07T06:42:54;101997.50;;;22.30;64.10
75585;BME280;64162;53.508;10.476;2023-09-07T06:45:24;102001.31;;;22.03;64.19
75585;BME280;64162;53.508;10.476;2023-09-07T06:47:51;101987.75;;;22.21;63.88
75585;BME280;64162;53.508;10.476;2023-09-07T06:50:21;101999.84;;;22.58;62.63
75585;BME280;64162;53.508;10.476;2023-09-07T06:52:48;101997.84;;;22.84;61.52
75585;BME280;64162;53.508;10.476;2023-09-07T06:55:15;102004.56;;;22.39;62.34
75585;BME280;64162;53.508;10.476;2023-09-07T06:57:43;102000.16;;;21.56;65.61
75585;BME280;64162;53.508;10.476;2023-09-07T07:00:11;102002.09;;;21.37;66.43
75585;BME280;64162;53.508;10.476;2023-09-07T07:02:38;102004.06;;;21.69;65.26
75585;BME280;64162;53.508;10.476;2023-09-07T07:05:06;102005.97;;;21.85;64.37
75585;BME280;64162;53.508;10.476;2023-09-07T07:07:34;102001.00;;;22.06;64.04
75585;BME280;64162;53.508;10.476;2023-09-07T07:10:01;102000.09;;;21.90;64.96
75585;BME280;64162;53.508;10.476;2023-09-07T07:12:28;101998.13;;;22.08;63.71
75585;BME280;64162;53.508;10.476;2023-09-07T07:14:54;102000.84;;;22.73;62.17
75585;BME280;64162;53.508;10.476;2023-09-07T07:17:21;102009.59;;;22.43;63.85
75585;BME280;64162;53.508;10.476;2023-09-07T07:19:48;102006.22;;;22.57;62.04
75585;BME280;64162;53.508;10.476;2023-09-07T07:22:15;102013.28;;;22.66;63.13
75585;BME280;64162;53.508;10.476;2023-09-07T07:24:43;102011.09;;;22.78;62.29
75585;BME280;64162;53.508;10.476;2023-09-07T07:27:10;102005.38;;;22.64;61.47
75585;BME280;64162;53.508;10.476;2023-09-07T07:29:38;102013.63;;;22.95;61.27
75585;BME280;64162;53.508;10.476;2023-09-07T07:32:05;102019.19;;;22.86;61.91
75585;BME280;64162;53.508;10.476;2023-09-07T07:34:32;102017.50;;;22.85;61.47
75585;BME280;64162;53.508;10.476;2023-09-07T07:37:00;102011.69;;;23.20;60.85
75585;BME280;64162;53.508;10.476;2023-09-07T07:39:26;102020.22;;;23.40;59.62
75585;BME280;64162;53.508;10.476;2023-09-07T07:41:53;102013.94;;;22.76;61.39
75585;BME280;64162;53.508;10.476;2023-09-07T07:44:19;102011.97;;;23.42;59.73
75585;BME280;64162;53.508;10.476;2023-09-07T07:46:47;102014.47;;;23.59;58.17
75585;BME280;64162;53.508;10.476;2023-09-07T07:49:15;102011.84;;;23.27;59.71
75585;BME280;64162;53.508;10.476;2023-09-07T07:51:42;102017.47;;;23.64;59.11
75585;BME280;64162;53.508;10.476;2023-09-07T07:54:09;102025.47;;;23.73;59.17
75585;BME280;64162;53.508;10.476;2023-09-07T07:56:38;102018.88;;;23.36;59.12
75585;BME280;64162;53.508;10.476;2023-09-07T07:59:05;102025.22;;;23.04;59.66
75585;BME280;64162;53.508;10.476;2023-09-07T08:01:32;102015.56;;;23.18;60.00
75585;BME280;64162;53.508;10.476;2023-09-07T08:04:00;102025.81;;;23.69;59.36
75585;BME280;64162;53.508;10.476;2023-09-07T08:06:28;102031.63;;;23.58;59.14
75585;BME280;64162;53.508;10.476;2023-09-07T08:08:55;102018.28;;;23.96;58.17
75585;BME280;64162;53.508;10.476;2023-09-07T08:11:22;102019.16;;;24.19;57.17
75585;BME280;64162;53.508;10.476;2023-09-07T08:13:51;102017.81;;;23.92;57.61
75585;BME280;64162;53.508;10.476;2023-09-07T08:16:18;102021.91;;;23.80;59.04
75585;BME280;64162;53.508;10.476;2023-09-07T08:18:45;102017.84;;;24.15;57.96
75585;BME280;64162;53.508;10.476;2023-09-07T08:21:14;102012.59;;;24.22;59.04
75585;BME280;64162;53.508;10.476;2023-09-07T08:23:41;102018.75;;;24.53;56.40
75585;BME280;64162;53.508;10.476;2023-09-07T08:26:08;102010.78;;;24.37;56.56
75585;BME280;64162;53.508;10.476;2023-09-07T08:28:38;102016.34;;;24.96;56.41
75585;BME280;64162;53.508;10.476;2023-09-07T08:31:05;102020.22;;;24.79;55.92
75585;BME280;64162;53.508;10.476;2023-09-07T08:33:32;102010.25;;;24.42;56.80
75585;BME280;64162;53.508;10.476;2023-09-07T08:36:06;102017.25;;;24.51;57.02
75585;BME280;64162;53.508;10.476;2023-09-07T08:38:34;102016.66;;;24.41;56.52
75585;BME280;64162;53.508;10.476;2023-09-07T08:41:02;102019.16;;;24.65;56.35
75585;BME280;64162;53.508;10.476;2023-09-07T08:43:33;102010.78;;;25.12;55.34
75585;BME280;64162;53.508;10.476;2023-09-07T08:46:09;102016.97;;;24.83;55.41
75585;BME280;64162;53.508;10.476;2023-09-07T08:48:38;102008.91;;;24.60;55.94
75585;BME280;64162;53.508;10.476;2023-09-07T08:51:06;102020.41;;;24.92;55.06
75585;BME280;64162;53.508;10.476;2023-09-07T08:53:33;102010.44;;;24.92;55.51
75585;BME280;64162;53.508;10.476;2023-09-07T08:56:01;102009.03;;;25.34;55.18
75585;BME280;64162;53.508;10.476;2023-09-07T08:58:28;102021.31;;;25.22;54.76
75585;BME280;64162;53.508;10.476;2023-09-07T09:00:55;102008.38;;;25.32;54.63
75585;BME280;64162;53.508;10.476;2023-09-07T09:03:32;102009.25;;;26.05;53.40
75585;BME280;64162;53.508;10.476;2023-09-07T09:06:01;102023.03;;;25.59;53.74
75585;BME280;64162;53.508;10.476;2023-09-07T09:08:28;102022.34;;;25.21;54.75
75585;BME280;64162;53.508;10.476;2023-09-07T09:11:01;102011.41;;;25.73;52.74
75585;BME280;64162;53.508;10.476;2023-09-07T09:13:30;102012.28;;;25.29;53.72
75585;BME280;64162;53.508;10.476;2023-09-07T09:16:01;102013.56;;;25.48;53.13
75585;BME280;64162;53.508;10.476;2023-09-07T09:18:28;102001.22;;;25.90;52.13
75585;BME280;64162;53.508;10.476;2023-09-07T09:20:55;102010.31;;;25.67;52.27
75585;BME280;64162;53.508;10.476;2023-09-07T09:23:22;102001.53;;;26.02;51.52
75585;BME280;64162;53.508;10.476;2023-09-07T09:25:48;102005.09;;;26.23;51.67
75585;BME280;64162;53.508;10.476;2023-09-07T09:28:15;101998.50;;;25.69;52.20
75585;BME280;64162;53.508;10.476;2023-09-07T09:30:42;101995.69;;;25.77;52.41
75585;BME280;64162;53.508;10.476;2023-09-07T09:33:12;102002.66;;;25.71;51.63
75585;BME280;64162;53.508;10.476;2023-09-07T09:35:39;102003.56;;;26.14;50.92
75585;BME280;64162;53.508;10.476;2023-09-07T09:38:06;101995.88;;;26.33;51.66
75585;BME280;64162;53.508;10.476;2023-09-07T09:40:33;102009.03;;;25.99;51.76
75585;BME280;64162;53.508;10.476;2023-09-07T09:43:05;102003.59;;;25.63;51.20
75585;BME280;64162;53.508;10.476;2023-09-07T09:45:33;102001.44;;;25.88;50.38
75585;BME280;64162;53.508;10.476;2023-09-07T09:48:00;102002.53;;;25.94;50.26
75585;BME280;64162;53.508;10.476;2023-09-07T09:50:27;102003.94;;;26.11;50.58
75585;BME280;64162;53.508;10.476;2023-09-07T09:52:54;102000.50;;;26.03;49.32
75585;BME280;64162;53.508;10.476;2023-09-07T09:55:23;101989.91;;;26.01;50.26
75585;BME280;64162;53.508;10.476;2023-09-07T09:57:50;101994.84;;;26.34;48.39
75585;BME280;64162;53.508;10.476;2023-09-07T10:00:17;101992.88;;;26.27;48.06
75585;BME280;64162;53.508;10.476;2023-09-07T10:02:51;101999.94;;;26.71;47.17
75585;BME280;64162;53.508;10.476;2023-09-07T10:05:21;101992.16;;;26.61;48.13
75585;BME280;64162;53.508;10.476;2023-09-07T10:07:51;101995.09;;;26.39;46.70
75585;BME280;64162;53.508;10.476;2023-09-07T10:10:19;101984.78;;;26.49;47.33
75585;BME280;64162;53.508;10.476;2023-09-07T10:12:52;101984.94;;;26.69;45.37
75585;BME280;64162;53.508;10.476;2023-09-07T10:15:23;101979.91;;;26.93;45.67
75585;BME280;64162;53.508;10.476;2023-09-07T10:17:50;101982.81;;;26.92;44.52
75585;BME280;64162;53.508;10.476;2023-09-07T10:20:28;101974.69;;;26.92;44.87
75585;BME280;64162;53.508;10.476;2023-09-07T10:23:13;101974.06;;;26.62;45.23
75585;BME280;64162;53.508;10.476;2023-09-07T10:25:40;101972.56;;;26.53;45.41
75585;BME280;64162;53.508;10.476;2023-09-07T10:28:24;101971.84;;;26.72;45.18
75585;BME280;64162;53.508;10.476;2023-09-07T10:31:18;101960.53;;;26.62;45.40
75585;BME280;64162;53.508;10.476;2023-09-07T10:33:46;101964.81;;;26.78;45.38
75585;BME280;64162;53.508;10.476;2023-09-07T10:36:24;101953.38;;;27.04;45.34
75585;BME280;64162;53.508;10.476;2023-09-07T10:38:53;101958.69;;;27.32;45.45
75585;BME280;64162;53.508;10.476;2023-09-07T10:41:20;101956.97;;;26.55;48.23
75585;BME280;64162;53.508;10.476;2023-09-07T10:43:48;101961.56;;;26.89;45.92
75585;BME280;64162;53.508;10.476;2023-09-07T10:46:19;101954.56;;;27.42;45.40
75585;BME280;64162;53.508;10.476;2023-09-07T10:48:51;101952.88;;;28.02;45.12
75585;BME280;64162;53.508;10.476;2023-09-07T10:51:19;101953.56;;;27.50;45.55
75585;BME280;64162;53.508;10.476;2023-09-07T10:53:46;101961.03;;;27.00;47.27
75585;BME280;64162;53.508;10.476;2023-09-07T10:56:15;101951.47;;;27.45;44.46
75585;BME280;64162;53.508;10.476;2023-09-07T10:58:41;101952.53;;;27.03;44.59
75585;BME280;64162;53.508;10.476;2023-09-07T11:01:09;101939.22;;;27.56;44.85
75585;BME280;64162;53.508;10.476;2023-09-07T11:03:36;101936.66;;;27.41;45.15
75585;BME280;64162;53.508;10.476;2023-09-07T11:06:15;101932.75;;;27.50;44.61
75585;BME280;64162;53.508;10.476;2023-09-07T11:08:43;101943.22;;;27.73;43.36
75585;BME280;64162;53.508;10.476;2023-09-07T11:11:09;101929.00;;;27.51;44.15
75585;BME280;64162;53.508;10.476;2023-09-07T11:13:36;101932.41;;;27.67;44.43
75585;BME280;64162;53.508;10.476;2023-09-07T11:16:06;101924.91;;;27.62;44.22
75585;BME280;64162;53.508;10.476;2023-09-07T11:18:33;101923.22;;;27.74;44.54
75585;BME280;64162;53.508;10.476;2023-09-07T11:21:02;101919.72;;;27.93;43.36
75585;BME280;64162;53.508;10.476;2023-09-07T11:23:33;101922.84;;;27.71;45.41
75585;BME280;64162;53.508;10.476;2023-09-07T11:26:10;101927.84;;;27.87;43.92
75585;BME280;64162;53.508;10.476;2023-09-07T11:28:37;101929.50;;;27.68;43.49
75585;BME280;64162;53.508;10.476;2023-09-07T11:31:04;101917.03;;;27.93;43.03
75585;BME280;64162;53.508;10.476;2023-09-07T11:33:32;101925.56;;;27.90;42.76
75585;BME280;64162;53.508;10.476;2023-09-07T11:35:59;101914.94;;;27.89;43.45
75585;BME280;64162;53.508;10.476;2023-09-07T11:38:35;101926.66;;;28.42;41.51
75585;BME280;64162;53.508;10.476;2023-09-07T11:41:01;101918.09;;;28.12;41.48
75585;BME280;64162;53.508;10.476;2023-09-07T11:43:28;101917.59;;;27.63;44.15
75585;BME280;64162;53.508;10.476;2023-09-07T11:45:55;101918.25;;;27.65;41.31
75585;BME280;64162;53.508;10.476;2023-09-07T11:48:21;101915.31;;;27.59;41.96
75585;BME280;64162;53.508;10.476;2023-09-07T11:50:48;101916.78;;;27.82;40.88
75585;BME280;64162;53.508;10.476;2023-09-07T11:53:15;101918.72;;;28.14;41.76
75585;BME280;64162;53.508;10.476;2023-09-07T11:55:41;101911.63;;;28.20;39.26
75585;BME280;64162;53.508;10.476;2023-09-07T11:58:09;101912.03;;;28.04;40.90
75585;BME280;64162;53.508;10.476;2023-09-07T12:00:36;101912.03;;;28.04;42.16
75585;BME280;64162;53.508;10.476;2023-09-07T12:03:03;101906.59;;;27.84;40.03
75585;BME280;64162;53.508;10.476;2023-09-07T12:05:30;101912.63;;;27.79;39.94
75585;BME280;64162;53.508;10.476;2023-09-07T12:07:57;101901.19;;;27.90;39.93
75585;BME280;64162;53.508;10.476;2023-09-07T12:10:23;101904.13;;;28.02;41.20
75585;BME280;64162;53.508;10.476;2023-09-07T12:12:50;101904.75;;;28.04;40.19
75585;BME280;64162;53.508;10.476;2023-09-07T12:15:17;101901.44;;;28.22;39.09
75585;BME280;64162;53.508;10.476;2023-09-07T12:17:43;101896.41;;;28.12;38.99
75585;BME280;64162;53.508;10.476;2023-09-07T12:20:10;101892.44;;;27.95;40.09
75585;BME280;64162;53.508;10.476;2023-09-07T12:22:37;101896.78;;;27.70;40.04
75585;BME280;64162;53.508;10.476;2023-09-07T12:25:05;101885.75;;;27.91;40.73
75585;BME280;64162;53.508;10.476;2023-09-07T12:27:39;101888.69;;;27.96;38.80
75585;BME280;64162;53.508;10.476;2023-09-07T12:30:18;101884.72;;;27.99;39.69
75585;BME280;64162;53.508;10.476;2023-09-07T12:32:46;101884.94;;;28.17;39.26
75585;BME280;64162;53.508;10.476;2023-09-07T12:35:13;101886.00;;;28.22;39.92
75585;BME280;64162;53.508;10.476;2023-09-07T12:37:41;101885.13;;;27.95;41.21
75585;BME280;64162;53.508;10.476;2023-09-07T12:40:08;101885.81;;;28.24;40.49
75585;BME280;64162;53.508;10.476;2023-09-07T12:42:40;101877.00;;;28.35;39.20